Time;durP1;ratioP1;P1;durP2;ratioP2;P2;SDS_P1;SDS_P2;PMS_P1;PMS_P2;Temp;Humidity;BMP_temperature;BMP_pressure;BME280_temperature;BME280_humidity;BME280_pressure;Samples;Min_cycle;Max_cycle;Signal;HPM_P1;HPM_P2
2022/06/14 00:00:57;;;;;;;0.60;0.13;;;18.00;99.90;;;;;;5053348;28;20450;-72
2022/06/14 00:03:28;;;;;;;0.60;0.10;;;18.00;99.90;;;;;;5053322;28;20453;-70
2022/06/14 00:05:56;;;;;;;0.60;0.10;;;18.00;99.90;;;;;;5052796;28;20455;-71
2022/06/14 00:08:27;;;;;;;0.60;0.10;;;18.00;99.90;;;;;;5052416;28;20445;-72
2022/06/14 00:10:56;;;;;;;0.60;0.20;;;17.90;99.90;;;;;;5049997;28;20447;-72
2022/06/14 00:13:25;;;;;;;0.60;0.10;;;17.80;99.90;;;;;;5053228;28;20482;-72
2022/06/14 00:15:53;;;;;;;0.60;0.10;;;17.80;99.90;;;;;;5052131;28;20486;-71
2022/06/14 00:18:21;;;;;;;0.60;0.10;;;17.80;99.90;;;;;;5052359;28;20438;-70
2022/06/14 00:20:49;;;;;;;0.60;0.10;;;17.80;99.90;;;;;;5052627;28;20528;-74
2022/06/14 00:23:18;;;;;;;0.60;0.17;;;17.70;99.90;;;;;;5052459;28;20451;-73
2022/06/14 00:25:51;;;;;;;0.60;0.10;;;17.70;99.90;;;;;;5049988;28;20474;-70
2022/06/14 00:28:19;;;;;;;0.60;0.13;;;17.70;99.90;;;;;;5045643;28;20443;-70
2022/06/14 00:30:49;;;;;;;0.60;0.10;;;17.70;99.90;;;;;;5047061;28;20447;-71
2022/06/14 00:33:17;;;;;;;0.60;0.20;;;17.70;99.90;;;;;;5052530;28;20538;-72
2022/06/14 00:35:45;;;;;;;0.60;0.10;;;17.70;99.90;;;;;;5051808;28;20551;-70
2022/06/14 00:38:14;;;;;;;0.60;0.20;;;17.60;99.90;;;;;;5047600;28;20543;-72
2022/06/14 00:40:52;;;;;;;0.60;0.20;;;17.60;99.90;;;;;;5051577;28;20457;-71
2022/06/14 00:43:20;;;;;;;0.60;0.13;;;17.50;99.90;;;;;;5052593;28;20507;-71
2022/06/14 00:46:20;;;;;;;0.60;0.10;;;17.50;99.90;;;;;;5051895;28;20458;-70
2022/06/14 00:48:57;;;;;;;0.60;0.20;;;17.40;99.90;;;;;;4971260;28;20492;-70
2022/06/14 00:51:30;;;;;;;0.60;0.10;;;17.40;99.90;;;;;;5031340;28;20450;-71
2022/06/14 00:54:03;;;;;;;0.60;0.10;;;17.30;99.90;;;;;;5052140;28;20975;-70
2022/06/14 00:56:39;;;;;;;0.60;0.10;;;17.30;99.90;;;;;;5051627;28;21054;-72
2022/06/14 00:59:13;;;;;;;0.60;0.10;;;17.30;99.90;;;;;;5052052;28;20955;-72
2022/06/14 01:01:43;;;;;;;0.60;0.10;;;17.30;99.90;;;;;;5045130;28;20459;-73
2022/06/14 01:04:15;;;;;;;0.60;0.20;;;17.40;99.90;;;;;;5051872;28;20967;-72
2022/06/14 01:06:51;;;;;;;0.60;0.10;;;17.30;99.90;;;;;;5051483;28;20466;-72
2022/06/14 01:09:24;;;;;;;0.60;0.10;;;17.30;99.90;;;;;;5052075;28;20449;-71
2022/06/14 01:11:56;;;;;;;0.60;0.10;;;17.30;99.90;;;;;;5052194;28;20814;-70
2022/06/14 01:14:27;;;;;;;0.60;0.20;;;17.30;99.90;;;;;;5051885;28;20454;-72
2022/06/14 01:16:55;;;;;;;0.60;0.20;;;17.30;99.90;;;;;;5043498;28;20486;-70
2022/06/14 01:19:26;;;;;;;0.60;0.10;;;17.30;99.90;;;;;;5052335;28;20451;-71
2022/06/14 01:22:23;;;;;;;0.60;0.10;;;17.30;99.90;;;;;;5050474;28;20807;-71
2022/06/14 01:24:51;;;;;;;0.60;0.20;;;17.40;99.90;;;;;;5051487;28;20467;-71
2022/06/14 01:27:21;;;;;;;0.60;0.10;;;17.30;99.90;;;;;;5044457;28;20450;-71
2022/06/14 01:29:56;;;;;;;0.60;0.10;;;17.30;99.90;;;;;;5043140;28;20457;-71
2022/06/14 01:32:29;;;;;;;0.60;0.10;;;17.20;99.90;;;;;;5051562;28;20441;-71
2022/06/14 01:34:59;;;;;;;0.60;0.30;;;17.20;99.90;;;;;;5051360;28;20462;-72
2022/06/14 01:37:30;;;;;;;0.60;0.10;;;17.20;99.90;;;;;;5051464;28;20452;-71
2022/06/14 01:39:59;;;;;;;0.60;0.20;;;17.10;99.90;;;;;;5053192;28;20821;-72
2022/06/14 01:42:37;;;;;;;0.60;0.20;;;17.10;99.90;;;;;;5055742;28;20450;-71
2022/06/14 01:45:10;;;;;;;0.60;0.20;;;17.00;99.90;;;;;;5055332;28;20479;-72
2022/06/14 01:47:49;;;;;;;0.60;0.10;;;16.90;99.90;;;;;;5055479;28;20446;-72
2022/06/14 01:53:25;;;;;;;0.60;0.20;;;16.80;99.90;;;;;;5055277;28;20446;-71
2022/06/14 01:56:02;;;;;;;0.60;0.13;;;16.70;99.90;;;;;;5054821;28;20509;-73
2022/06/14 01:58:41;;;;;;;0.60;0.10;;;16.70;99.90;;;;;;5055327;28;20577;-70
2022/06/14 02:01:18;;;;;;;0.60;0.10;;;16.70;99.90;;;;;;5050258;28;20457;-71
2022/06/14 02:06:41;;;;;;;0.60;0.10;;;16.60;99.90;;;;;;5054793;28;20504;-71
2022/06/14 02:09:15;;;;;;;0.60;0.10;;;16.60;99.90;;;;;;5054762;28;20446;-71
2022/06/14 02:11:43;;;;;;;0.60;0.20;;;16.60;99.90;;;;;;5055091;28;20813;-71
2022/06/14 02:14:20;;;;;;;0.60;0.20;;;16.60;99.90;;;;;;5054624;28;20843;-71
2022/06/14 02:16:54;;;;;;;0.60;0.10;;;16.60;99.90;;;;;;5054306;28;20489;-73
2022/06/14 02:19:30;;;;;;;0.60;0.10;;;16.60;99.90;;;;;;5050739;28;20531;-73
2022/06/14 02:22:03;;;;;;;0.60;0.20;;;16.60;99.90;;;;;;5047881;28;20449;-71
2022/06/14 02:24:40;;;;;;;0.60;0.10;;;16.60;99.90;;;;;;5054400;28;20545;-71
2022/06/14 02:27:13;;;;;;;0.60;0.10;;;16.60;99.90;;;;;;5054210;28;20446;-72
2022/06/14 02:29:47;;;;;;;0.60;0.10;;;16.60;99.90;;;;;;5054881;28;20442;-71
2022/06/14 02:32:20;;;;;;;0.60;0.10;;;16.60;99.90;;;;;;5054906;28;20466;-72
2022/06/14 02:34:53;;;;;;;0.60;0.20;;;16.50;99.90;;;;;;5054498;28;20485;-71
2022/06/14 02:37:25;;;;;;;0.60;0.10;;;16.50;99.90;;;;;;5054022;28;20477;-71
2022/06/14 02:39:58;;;;;;;0.60;0.10;;;16.50;99.90;;;;;;5054564;28;20481;-70
2022/06/14 02:42:31;;;;;;;0.60;0.10;;;16.50;99.90;;;;;;5054653;28;20449;-73
2022/06/14 02:45:05;;;;;;;0.60;0.10;;;16.50;99.90;;;;;;5054286;28;20468;-71
2022/06/14 02:47:39;;;;;;;0.60;0.10;;;16.40;99.90;;;;;;5046676;28;20451;-70
2022/06/14 02:50:15;;;;;;;0.60;0.10;;;16.30;99.90;;;;;;5053139;28;20442;-70
2022/06/14 02:52:48;;;;;;;0.60;0.10;;;16.30;99.90;;;;;;5054650;28;20476;-70
2022/06/14 02:55:22;;;;;;;0.60;0.10;;;16.30;99.90;;;;;;5053966;28;20812;-70
2022/06/14 02:57:56;;;;;;;0.60;0.10;;;16.20;99.90;;;;;;5053613;28;20500;-70
2022/06/14 03:00:28;;;;;;;0.60;0.10;;;16.10;99.90;;;;;;5054600;28;20441;-70
2022/06/14 03:03:01;;;;;;;0.60;0.10;;;16.10;99.90;;;;;;5054327;28;20963;-71
2022/06/14 03:05:36;;;;;;;0.60;0.10;;;16.10;99.90;;;;;;5053386;28;20469;-77
2022/06/14 03:08:10;;;;;;;0.60;0.10;;;16.10;99.90;;;;;;5053681;28;20442;-72
2022/06/14 03:10:45;;;;;;;0.60;0.10;;;16.20;99.90;;;;;;5054379;28;20446;-72
2022/06/14 03:13:22;;;;;;;0.60;0.20;;;16.10;99.90;;;;;;5055226;28;20456;-73
2022/06/14 03:15:56;;;;;;;0.60;0.10;;;16.10;99.90;;;;;;5053583;28;20487;-72
2022/06/14 03:18:34;;;;;;;0.60;0.10;;;16.10;99.90;;;;;;5054055;28;20462;-72
2022/06/14 03:21:13;;;;;;;0.60;0.20;;;16.10;99.90;;;;;;5054288;28;20446;-72
2022/06/14 03:23:47;;;;;;;0.60;0.10;;;16.10;99.90;;;;;;5054277;28;20515;-71
2022/06/14 03:26:23;;;;;;;0.60;0.10;;;16.20;99.90;;;;;;5053247;28;20478;-70
2022/06/14 03:28:55;;;;;;;0.60;0.10;;;16.10;99.90;;;;;;5053762;28;20441;-72
2022/06/14 03:31:30;;;;;;;0.60;0.20;;;16.10;99.90;;;;;;5053861;28;20827;-70
2022/06/14 03:34:03;;;;;;;0.60;0.10;;;16.10;99.90;;;;;;5053622;28;20476;-71
2022/06/14 03:36:32;;;;;;;0.60;0.10;;;16.20;99.90;;;;;;5053179;28;20489;-70
2022/06/14 03:39:05;;;;;;;0.60;0.10;;;16.20;99.90;;;;;;5053574;28;20449;-71
2022/06/14 03:41:37;;;;;;;0.60;0.10;;;16.20;99.90;;;;;;5053598;28;20485;-71
2022/06/14 03:44:06;;;;;;;0.60;0.10;;;16.20;99.90;;;;;;5053540;28;20437;-71
2022/06/14 03:46:40;;;;;;;0.60;0.30;;;16.10;99.90;;;;;;5044405;28;20524;-71
2022/06/14 03:49:14;;;;;;;0.60;0.10;;;16.00;99.90;;;;;;5054133;28;20445;-71
2022/06/14 03:51:52;;;;;;;0.60;0.10;;;16.00;99.90;;;;;;5054531;28;20441;-70
2022/06/14 03:54:40;;;;;;;0.60;0.20;;;16.00;99.90;;;;;;5053952;28;20451;-71
2022/06/14 03:57:25;;;;;;;0.60;0.20;;;16.00;99.90;;;;;;5054312;28;20477;-72
2022/06/14 04:00:06;;;;;;;0.60;0.10;;;15.90;99.90;;;;;;5055573;28;20450;-73
2022/06/14 04:02:55;;;;;;;0.60;0.10;;;16.00;99.90;;;;;;5054474;28;20456;-71
2022/06/14 04:05:36;;;;;;;0.60;0.13;;;16.00;99.90;;;;;;5053427;28;20465;-71
2022/06/14 04:08:13;;;;;;;0.60;0.10;;;16.10;99.90;;;;;;5026991;28;20426;-70
2022/06/14 04:10:48;;;;;;;0.60;0.10;;;16.10;99.90;;;;;;5038439;28;20843;-72
2022/06/14 04:13:27;;;;;;;0.60;0.20;;;16.10;99.90;;;;;;5053112;28;20448;-72
2022/06/14 04:16:02;;;;;;;0.60;0.10;;;16.20;99.90;;;;;;5082066;23;20497;-73
2022/06/14 04:18:40;;;;;;;0.60;0.10;;;16.20;99.90;;;;;;5039981;28;20489;-74
2022/06/14 04:21:24;;;;;;;0.60;0.10;;;16.20;99.90;;;;;;5030233;28;20815;-74
2022/06/14 04:23:58;;;;;;;0.60;0.10;;;16.30;99.90;;;;;;5033717;28;20455;-73
2022/06/14 04:26:34;;;;;;;0.60;0.10;;;16.30;99.90;;;;;;5045037;28;20470;-73
2022/06/14 04:29:12;;;;;;;0.60;0.20;;;16.40;99.90;;;;;;5035127;28;20449;-74
2022/06/14 04:31:45;;;;;;;0.60;0.20;;;16.40;99.90;;;;;;5055718;28;20461;-72
2022/06/14 04:34:19;;;;;;;0.60;0.20;;;16.50;99.90;;;;;;5051602;28;20536;-74
2022/06/14 04:36:54;;;;;;;0.60;0.20;;;16.50;99.90;;;;;;5046438;28;21026;-74
2022/06/14 04:39:26;;;;;;;0.60;0.13;;;16.50;99.90;;;;;;5037730;28;20442;-73
2022/06/14 04:41:59;;;;;;;0.60;0.10;;;16.50;99.90;;;;;;5026045;28;20455;-74
2022/06/14 04:44:36;;;;;;;0.60;0.13;;;16.60;99.90;;;;;;5045263;28;20442;-74
2022/06/14 04:47:10;;;;;;;0.60;0.10;;;16.60;99.90;;;;;;5052422;28;20470;-75
2022/06/14 04:49:42;;;;;;;0.60;0.10;;;16.60;99.90;;;;;;5053619;28;20530;-75
2022/06/14 04:52:14;;;;;;;0.60;0.10;;;16.60;99.90;;;;;;5051182;28;20538;-74
2022/06/14 04:54:50;;;;;;;0.60;0.10;;;16.60;99.90;;;;;;5056593;28;20558;-75
2022/06/14 04:57:23;;;;;;;0.60;0.10;;;16.50;99.90;;;;;;5070945;28;20498;-74
2022/06/14 04:59:56;;;;;;;0.60;0.20;;;16.50;99.90;;;;;;5059426;28;20441;-74
2022/06/14 05:02:28;;;;;;;0.60;0.13;;;16.50;99.90;;;;;;5050737;28;20697;-73
2022/06/14 05:05:03;;;;;;;0.60;0.10;;;16.40;99.90;;;;;;5060526;28;20479;-74
2022/06/14 05:07:35;;;;;;;0.60;0.10;;;16.40;99.90;;;;;;5042592;28;21156;-74
2022/06/14 05:10:06;;;;;;;0.60;0.20;;;16.40;99.90;;;;;;5054414;28;20457;-74
2022/06/14 05:12:45;;;;;;;0.60;0.10;;;16.40;99.90;;;;;;5048560;28;20450;-74
2022/06/14 05:15:20;;;;;;;0.60;0.10;;;16.30;99.90;;;;;;5049407;28;20457;-73
2022/06/14 05:17:52;;;;;;;0.60;0.13;;;16.30;99.90;;;;;;5046835;28;20851;-73
2022/06/14 05:20:26;;;;;;;0.60;0.10;;;16.30;99.90;;;;;;5045669;28;20823;-74
2022/06/14 05:23:00;;;;;;;0.60;0.10;;;16.40;99.90;;;;;;5045274;28;20447;-75
2022/06/14 05:25:42;;;;;;;0.60;0.17;;;16.50;99.90;;;;;;5053226;28;20464;-76
2022/06/14 05:28:20;;;;;;;0.60;0.10;;;16.50;99.90;;;;;;5052890;28;20445;-73
2022/06/14 05:30:54;;;;;;;0.60;0.10;;;16.40;99.90;;;;;;5054610;28;20532;-75
2022/06/14 05:33:32;;;;;;;0.60;0.10;;;16.40;99.90;;;;;;5067867;28;20452;-76
2022/06/14 05:36:05;;;;;;;0.60;0.10;;;16.40;99.90;;;;;;5055927;28;20477;-74
2022/06/14 05:38:42;;;;;;;0.60;0.10;;;16.40;99.90;;;;;;5051534;28;20480;-76
2022/06/14 05:41:15;;;;;;;0.60;0.10;;;16.40;99.90;;;;;;5042091;28;20972;-75
2022/06/14 05:43:48;;;;;;;0.60;0.20;;;16.40;99.90;;;;;;5052308;28;20438;-72
2022/06/14 05:46:24;;;;;;;0.60;0.20;;;16.60;99.90;;;;;;5051171;28;20473;-70
2022/06/14 05:49:01;;;;;;;0.60;0.10;;;16.60;99.90;;;;;;5050326;28;20434;-71
2022/06/14 05:51:34;;;;;;;0.60;0.20;;;16.80;99.90;;;;;;5047278;28;20465;-73
2022/06/14 05:54:09;;;;;;;0.60;0.10;;;16.90;99.90;;;;;;5048220;28;20560;-70
2022/06/14 05:56:41;;;;;;;0.60;0.10;;;17.20;99.90;;;;;;5036739;28;20482;-73
2022/06/14 05:59:15;;;;;;;0.60;0.10;;;17.30;99.90;;;;;;5042158;28;20484;-73
2022/06/14 06:01:56;;;;;;;0.60;0.10;;;17.40;99.90;;;;;;5051303;28;20450;-73
2022/06/14 06:04:29;;;;;;;0.60;0.20;;;17.50;99.90;;;;;;5047782;28;20530;-73
2022/06/14 06:07:03;;;;;;;0.60;0.10;;;17.60;99.90;;;;;;5048421;28;20478;-72
2022/06/14 06:09:36;;;;;;;0.60;0.20;;;17.60;99.90;;;;;;5053707;28;21167;-74
2022/06/14 06:12:08;;;;;;;0.60;0.10;;;17.60;99.90;;;;;;5051042;28;20443;-74
2022/06/14 06:14:39;;;;;;;0.60;0.10;;;17.70;99.90;;;;;;5048238;28;20442;-72
2022/06/14 06:17:11;;;;;;;0.60;0.20;;;17.70;99.90;;;;;;5027265;28;20561;-74
2022/06/14 06:19:47;;;;;;;0.60;0.20;;;17.70;99.90;;;;;;5049670;28;20482;-75
2022/06/14 06:22:19;;;;;;;0.60;0.20;;;17.70;99.90;;;;;;5031901;28;20454;-74
2022/06/14 06:24:50;;;;;;;0.60;0.10;;;17.70;99.90;;;;;;5033474;28;20971;-74
2022/06/14 06:27:22;;;;;;;0.60;0.10;;;17.80;99.90;;;;;;5043202;28;20458;-73
2022/06/14 06:29:53;;;;;;;0.60;0.10;;;17.90;99.90;;;;;;5056391;28;20540;-75
2022/06/14 06:32:26;;;;;;;0.60;0.10;;;18.00;99.90;;;;;;5052649;28;20514;-74
2022/06/14 06:34:54;;;;;;;0.60;0.10;;;18.10;99.90;;;;;;5044742;28;20843;-77
2022/06/14 06:37:28;;;;;;;0.60;0.10;;;18.20;99.90;;;;;;5052099;28;20455;-73
2022/06/14 06:40:00;;;;;;;0.60;0.10;;;18.30;99.90;;;;;;5031946;28;20435;-77
2022/06/14 06:42:32;;;;;;;0.60;0.10;;;18.30;99.90;;;;;;5055784;28;20454;-75
2022/06/14 06:45:05;;;;;;;0.60;0.20;;;18.50;99.90;;;;;;5046166;28;20873;-76
2022/06/14 06:47:39;;;;;;;0.60;0.10;;;18.50;99.90;;;;;;5044480;28;20469;-76
2022/06/14 06:50:17;;;;;;;0.60;0.20;;;18.60;99.90;;;;;;5047894;28;20530;-77
2022/06/14 06:53:02;;;;;;;0.60;0.20;;;18.70;99.90;;;;;;5047030;28;20469;-78
2022/06/14 06:55:40;;;;;;;1.70;1.60;;;18.60;99.90;;;;;;5053938;28;21067;-75
2022/06/14 06:58:14;;;;;;;0.60;0.17;;;18.60;99.90;;;;;;5056137;28;20483;-76
2022/06/14 07:00:44;;;;;;;0.60;0.20;;;18.60;99.90;;;;;;5056870;28;20463;-75
2022/06/14 07:03:18;;;;;;;0.60;0.10;;;18.60;99.90;;;;;;5031898;28;20467;-76
2022/06/14 07:05:50;;;;;;;0.60;0.20;;;18.70;99.90;;;;;;5050528;28;20839;-76
2022/06/14 07:08:26;;;;;;;0.60;0.10;;;18.80;99.90;;;;;;5060073;28;20441;-75
2022/06/14 07:10:56;;;;;;;0.60;0.10;;;18.80;99.90;;;;;;5056043;28;20450;-77
2022/06/14 07:13:28;;;;;;;0.60;0.20;;;18.90;99.90;;;;;;5055516;28;20443;-78
2022/06/14 07:16:18;;;;;;;0.60;0.20;;;19.00;99.90;;;;;;5054886;28;20493;-76
2022/06/14 07:18:52;;;;;;;0.60;0.10;;;18.90;99.90;;;;;;5055343;28;20510;-77
2022/06/14 07:21:23;;;;;;;0.60;0.10;;;18.90;99.90;;;;;;5039169;28;20454;-76
2022/06/14 07:23:56;;;;;;;0.60;0.13;;;18.90;99.90;;;;;;5035361;28;20962;-77
2022/06/14 07:26:29;;;;;;;0.60;0.20;;;19.00;99.90;;;;;;5034146;28;20466;-77
2022/06/14 07:29:03;;;;;;;0.60;0.20;;;19.00;99.90;;;;;;5035107;28;20450;-77
2022/06/14 07:31:37;;;;;;;0.60;0.10;;;19.10;99.90;;;;;;5044691;28;20497;-77
2022/06/14 07:34:07;;;;;;;0.60;0.10;;;19.10;99.90;;;;;;5054904;28;20445;-75
2022/06/14 07:36:46;;;;;;;0.60;0.10;;;19.20;99.90;;;;;;5053312;28;20467;-75
2022/06/14 07:39:23;;;;;;;0.60;0.10;;;19.30;99.90;;;;;;5053981;28;20557;-75
2022/06/14 07:42:00;;;;;;;0.60;0.10;;;19.30;99.90;;;;;;5065505;28;20458;-76
2022/06/14 07:44:35;;;;;;;0.60;0.20;;;19.40;99.90;;;;;;5074734;28;20448;-77
2022/06/14 07:47:08;;;;;;;0.60;0.17;;;19.50;99.90;;;;;;5074141;28;20461;-75
2022/06/14 07:49:52;;;;;;;0.60;0.10;;;19.60;99.90;;;;;;5077859;28;20904;-77
2022/06/14 07:52:25;;;;;;;0.60;0.10;;;19.70;99.90;;;;;;5060006;28;20461;-76
2022/06/14 07:54:58;;;;;;;0.60;0.20;;;19.70;99.90;;;;;;5056142;28;20433;-75
2022/06/14 07:57:31;;;;;;;0.60;0.10;;;19.70;99.90;;;;;;5055274;28;20449;-78
2022/06/14 08:02:51;;;;;;;0.60;0.20;;;20.00;99.90;;;;;;5033243;28;20447;-77
2022/06/14 08:05:25;;;;;;;0.60;0.20;;;20.00;99.90;;;;;;5033327;28;20475;-76
2022/06/14 08:07:56;;;;;;;0.63;0.20;;;20.00;99.90;;;;;;5033997;28;20439;-77
2022/06/14 08:10:29;;;;;;;0.60;0.10;;;19.90;99.90;;;;;;5038298;28;20446;-77
2022/06/14 08:13:00;;;;;;;0.70;0.20;;;20.00;99.90;;;;;;5050336;28;20509;-76
2022/06/14 08:15:31;;;;;;;0.60;0.17;;;20.10;99.90;;;;;;5038970;28;20547;-76
2022/06/14 08:18:02;;;;;;;0.60;0.20;;;20.20;99.90;;;;;;5058869;28;20447;-78
2022/06/14 08:20:38;;;;;;;0.60;0.20;;;20.20;99.90;;;;;;5056054;28;20481;-74
2022/06/14 08:23:14;;;;;;;0.60;0.10;;;20.40;99.90;;;;;;5058639;28;20450;-77
2022/06/14 08:25:47;;;;;;;0.60;0.10;;;20.40;99.90;;;;;;5056132;28;20458;-77
2022/06/14 08:28:20;;;;;;;0.60;0.10;;;20.40;99.90;;;;;;5061558;28;20443;-76
2022/06/14 08:30:55;;;;;;;0.60;0.10;;;20.30;99.90;;;;;;5039709;28;20456;-76
2022/06/14 08:33:29;;;;;;;8.90;2.00;;;20.30;99.90;;;;;;5054372;28;21393;-77
2022/06/14 08:36:05;;;;;;;0.60;0.10;;;20.30;99.90;;;;;;5052769;28;20489;-77
2022/06/14 08:38:38;;;;;;;0.60;0.10;;;20.30;99.90;;;;;;5036177;28;20458;-75
2022/06/14 08:41:23;;;;;;;0.60;0.10;;;20.30;99.90;;;;;;5047018;28;20451;-77
2022/06/14 08:43:57;;;;;;;0.60;0.20;;;20.40;99.90;;;;;;5053643;28;20443;-76
2022/06/14 08:46:41;;;;;;;0.60;0.10;;;20.50;99.90;;;;;;5050362;28;21054;-74
2022/06/14 08:49:17;;;;;;;0.70;0.20;;;20.50;99.90;;;;;;5058416;28;20445;-76
2022/06/14 08:52:12;;;;;;;0.60;0.20;;;20.60;99.90;;;;;;5067757;28;20540;-75
2022/06/14 08:55:17;;;;;;;0.67;0.20;;;20.80;99.90;;;;;;5071675;28;20888;-75
2022/06/14 08:58:11;;;;;;;0.60;0.10;;;20.80;99.90;;;;;;5017196;28;20446;-78
2022/06/14 09:00:49;;;;;;;0.60;0.10;;;21.00;99.90;;;;;;5055701;28;20473;-79
2022/06/14 09:03:59;;;;;;;0.60;0.20;;;21.10;99.90;;;;;;5077081;28;20445;-83
2022/06/14 09:07:05;;;;;;;0.63;0.10;;;21.20;99.90;;;;;;5075675;28;20465;-77
2022/06/14 09:10:13;;;;;;;0.60;0.20;;;21.20;99.90;;;;;;5066435;28;20458;-78
2022/06/14 09:13:12;;;;;;;0.70;0.10;;;21.20;99.90;;;;;;5047086;28;20496;-75
2022/06/14 09:16:18;;;;;;;0.70;0.10;;;21.40;99.90;;;;;;5045283;28;20513;-74
2022/06/14 09:19:00;;;;;;;0.70;0.20;;;21.40;99.90;;;;;;5039589;28;20450;-74
2022/06/14 09:21:37;;;;;;;0.70;0.20;;;21.50;99.90;;;;;;5054080;28;20460;-74
2022/06/14 09:24:16;;;;;;;0.70;0.10;;;21.50;99.90;;;;;;5057947;28;20975;-70
2022/06/14 09:26:59;;;;;;;0.70;0.10;;;21.50;99.90;;;;;;5069865;28;20485;-73
2022/06/14 09:29:58;;;;;;;0.60;0.10;;;21.50;99.90;;;;;;5051763;28;20442;-72
2022/06/14 09:33:16;;;;;;;0.70;0.20;;;21.40;99.90;;;;;;5051895;28;20454;-76
2022/06/14 09:36:28;;;;;;;0.60;0.10;;;21.50;99.90;;;;;;5067106;28;20539;-76
2022/06/14 09:39:22;;;;;;;0.70;0.10;;;21.50;99.90;;;;;;5072562;28;20449;-76
2022/06/14 09:42:24;;;;;;;0.70;0.10;;;21.50;99.90;;;;;;5065166;28;20439;-76
2022/06/14 09:45:21;;;;;;;0.70;0.10;;;21.80;99.90;;;;;;5039654;28;20450;-77
2022/06/14 09:48:12;;;;;;;0.70;0.10;;;21.80;99.90;;;;;;5051435;28;20446;-77
2022/06/14 09:51:11;;;;;;;0.70;0.10;;;21.90;99.90;;;;;;5053090;28;20506;-75
2022/06/14 09:54:22;;;;;;;0.70;0.10;;;22.00;99.90;;;;;;5063119;28;20515;-75
2022/06/14 09:57:28;;;;;;;0.70;0.10;;;22.10;99.90;;;;;;4989419;28;20465;-75
2022/06/14 10:00:21;;;;;;;0.70;0.17;;;22.20;99.90;;;;;;5027759;28;20993;-76
2022/06/14 10:03:09;;;;;;;0.70;0.20;;;22.30;99.90;;;;;;5036369;28;20448;-76
2022/06/14 10:06:01;;;;;;;0.70;0.20;;;22.40;99.90;;;;;;5049266;28;20528;-76
2022/06/14 10:08:45;;;;;;;0.70;0.10;;;22.40;99.90;;;;;;5059888;28;20466;-76
2022/06/14 10:11:25;;;;;;;0.70;0.10;;;22.40;99.90;;;;;;5055157;28;20864;-75
2022/06/14 10:14:20;;;;;;;0.70;0.10;;;22.50;99.90;;;;;;5056817;28;20438;-79
2022/06/14 10:17:03;;;;;;;0.70;0.10;;;22.50;99.90;;;;;;5058080;28;20482;-76
2022/06/14 10:19:54;;;;;;;0.70;0.20;;;22.50;99.90;;;;;;5053662;28;20984;-74
2022/06/14 10:22:36;;;;;;;0.70;0.10;;;22.60;99.90;;;;;;5055632;28;20449;-74
2022/06/14 10:25:10;;;;;;;0.70;0.20;;;22.60;99.90;;;;;;5054856;28;20457;-75
2022/06/14 10:30:53;;;;;;;0.70;0.17;;;22.60;99.90;;;;;;5056590;28;20442;-75
2022/06/14 10:33:32;;;;;;;0.70;0.10;;;22.60;99.90;;;;;;5052589;28;20461;-77
2022/06/14 10:36:28;;;;;;;0.70;0.10;;;22.70;99.90;;;;;;5055614;28;20467;-77
2022/06/14 10:39:41;;;;;;;0.70;0.20;;;22.70;99.90;;;;;;5055030;28;20453;-74
2022/06/14 10:42:17;;;;;;;0.70;0.10;;;22.80;99.90;;;;;;4975172;28;20507;-74
2022/06/14 10:44:56;;;;;;;0.70;0.10;;;22.80;99.90;;;;;;4978856;28;20952;-76
2022/06/14 10:47:37;;;;;;;0.70;0.10;;;22.90;99.90;;;;;;5031911;23;20494;-74
2022/06/14 10:50:35;;;;;;;0.70;0.20;;;22.80;99.90;;;;;;5057395;28;20873;-73
2022/06/14 10:53:14;;;;;;;0.70;0.13;;;23.10;99.90;;;;;;5054333;28;20804;-74
2022/06/14 10:55:55;;;;;;;0.70;0.10;;;23.10;99.90;;;;;;5049553;28;20439;-74
2022/06/14 10:59:01;;;;;;;0.70;0.10;;;23.30;99.90;;;;;;5062376;28;20466;-75
2022/06/14 11:01:48;;;;;;;0.70;0.20;;;23.30;99.90;;;;;;5074306;28;21172;-73
2022/06/14 11:04:25;;;;;;;0.70;0.20;;;23.40;99.90;;;;;;5075411;28;20442;-73
2022/06/14 11:07:24;;;;;;;0.70;0.10;;;23.40;99.90;;;;;;5066012;28;20453;-74
2022/06/14 11:10:12;;;;;;;0.70;0.10;;;23.40;99.90;;;;;;5067655;28;20492;-73
2022/06/14 11:12:58;;;;;;;0.70;0.20;;;23.60;99.90;;;;;;5075064;28;20441;-75
2022/06/14 11:15:35;;;;;;;0.70;0.20;;;23.60;99.90;;;;;;5074046;28;20449;-73
2022/06/14 11:18:41;;;;;;;0.70;0.13;;;23.60;99.90;;;;;;5073855;28;20491;-74
2022/06/14 11:21:34;;;;;;;0.70;0.13;;;23.50;99.90;;;;;;5033863;28;20481;-74
2022/06/14 11:24:10;;;;;;;0.70;0.10;;;23.60;99.90;;;;;;5074209;28;20445;-75
2022/06/14 11:26:49;;;;;;;0.70;0.10;;;23.80;99.90;;;;;;5073305;28;20503;-74
2022/06/14 11:29:25;;;;;;;0.70;0.10;;;23.90;99.90;;;;;;5071376;28;20457;-76
2022/06/14 11:32:02;;;;;;;0.70;0.20;;;23.90;99.90;;;;;;5066161;28;20491;-74
2022/06/14 11:34:57;;;;;;;0.70;0.10;;;24.00;99.90;;;;;;5074649;28;20441;-74
2022/06/14 11:37:47;;;;;;;0.70;0.10;;;24.00;99.90;;;;;;5070752;28;20473;-74
2022/06/14 11:40:18;;;;;;;0.70;0.20;;;24.10;99.90;;;;;;5080405;28;20488;-73
2022/06/14 11:43:05;;;;;;;0.70;0.10;;;24.10;99.90;;;;;;5065975;28;20541;-75
2022/06/14 11:45:44;;;;;;;0.70;0.10;;;24.20;99.90;;;;;;5053342;28;20446;-73
2022/06/14 11:48:21;;;;;;;0.70;0.20;;;24.20;99.90;;;;;;5066452;28;20546;-73
2022/06/14 11:50:55;;;;;;;0.70;0.20;;;24.20;99.90;;;;;;5074323;28;21010;-74
2022/06/14 11:53:42;;;;;;;0.70;0.20;;;24.20;99.90;;;;;;5074725;28;20528;-74
2022/06/14 11:56:17;;;;;;;0.70;0.20;;;24.20;99.90;;;;;;5071186;28;20533;-75
2022/06/14 11:59:11;;;;;;;0.70;0.10;;;24.30;99.90;;;;;;5057220;28;20469;-75
2022/06/14 12:01:50;;;;;;;0.70;0.10;;;24.50;99.90;;;;;;5053236;28;20482;-75
2022/06/14 12:04:36;;;;;;;0.70;0.20;;;24.50;99.90;;;;;;5053661;28;20461;-74
2022/06/14 12:07:14;;;;;;;0.70;0.10;;;24.50;99.90;;;;;;5061710;28;20478;-75
2022/06/14 12:10:24;;;;;;;0.70;0.10;;;24.60;99.90;;;;;;5065091;28;20449;-73
2022/06/14 12:13:08;;;;;;;0.70;0.10;;;24.70;99.90;;;;;;5073311;28;20528;-75
2022/06/14 12:15:45;;;;;;;0.70;0.10;;;24.80;99.90;;;;;;5072467;28;20955;-74
2022/06/14 12:18:19;;;;;;;0.70;0.20;;;24.80;99.90;;;;;;5064785;28;20471;-73
2022/06/14 12:20:56;;;;;;;0.70;0.20;;;24.70;99.90;;;;;;5058389;28;20484;-73
2022/06/14 12:23:34;;;;;;;0.70;0.20;;;24.70;99.90;;;;;;5053267;28;20448;-73
2022/06/14 12:29:04;;;;;;;0.70;0.30;;;24.80;99.90;;;;;;5055411;28;20528;-74
2022/06/14 12:31:42;;;;;;;0.70;0.20;;;24.80;99.90;;;;;;5061970;28;20438;-74
2022/06/14 12:34:20;;;;;;;0.70;0.20;;;24.60;99.90;;;;;;5053029;28;20446;-73
2022/06/14 12:37:06;;;;;;;0.70;0.20;;;24.60;99.90;;;;;;5063610;28;20812;-75
2022/06/14 12:39:43;;;;;;;0.70;0.10;;;24.50;99.90;;;;;;5073517;28;20449;-74
2022/06/14 12:42:19;;;;;;;0.70;0.10;;;24.50;99.90;;;;;;5064150;28;20517;-73
2022/06/14 12:44:55;;;;;;;0.70;0.20;;;24.60;99.90;;;;;;5057896;28;20442;-74
2022/06/14 12:47:30;;;;;;;0.80;0.50;;;24.70;99.90;;;;;;5066762;28;20465;-73
2022/06/14 12:50:16;;;;;;;0.70;0.20;;;24.70;99.90;;;;;;5067354;28;20756;-74
2022/06/14 12:52:47;;;;;;;0.70;0.20;;;24.80;99.90;;;;;;5070576;28;20452;-73
2022/06/14 12:55:20;;;;;;;0.70;0.20;;;24.80;99.90;;;;;;5061944;28;20445;-72
2022/06/14 12:58:14;;;;;;;0.70;0.10;;;25.00;99.90;;;;;;5071789;28;20469;-72
2022/06/14 13:00:52;;;;;;;0.70;0.10;;;25.00;99.90;;;;;;5073000;28;20548;-75
2022/06/14 13:03:28;;;;;;;0.70;0.10;;;25.00;99.90;;;;;;5073094;28;20477;-73
2022/06/14 13:06:06;;;;;;;0.70;0.10;;;25.20;99.90;;;;;;5069584;28;20445;-72
2022/06/14 13:08:42;;;;;;;0.70;0.20;;;25.30;99.90;;;;;;5053697;28;20462;-74
2022/06/14 13:11:17;;;;;;;0.70;0.10;;;25.30;99.90;;;;;;5053715;28;21075;-75
2022/06/14 13:14:08;;;;;;;0.70;0.20;;;25.30;99.90;;;;;;5053880;28;20975;-72
2022/06/14 13:16:52;;;;;;;0.70;0.10;;;25.30;99.90;;;;;;5060663;28;20461;-73
2022/06/14 13:19:23;;;;;;;0.70;0.20;;;;;;;;;;5058026;28;20440;-73
2022/06/14 13:22:09;;;;;;;0.70;0.10;;;25.20;99.90;;;;;;5080578;28;20477;-74
2022/06/14 13:24:50;;;;;;;0.70;0.20;;;25.20;99.90;;;;;;5076634;28;20457;-74
2022/06/14 13:27:25;;;;;;;0.70;0.17;;;25.20;99.90;;;;;;5066676;28;20480;-74
2022/06/14 13:30:04;;;;;;;0.70;0.10;;;25.20;99.90;;;;;;5055322;28;20443;-73
2022/06/14 13:32:43;;;;;;;0.70;0.20;;;25.30;99.90;;;;;;5052263;28;20530;-73
2022/06/14 13:35:44;;;;;;;0.70;0.10;;;25.40;99.90;;;;;;5051336;28;20905;-74
2022/06/14 13:38:17;;;;;;;0.70;0.10;;;25.60;99.90;;;;;;5058159;28;20472;-73
2022/06/14 13:40:50;;;;;;;0.70;0.10;;;25.60;99.90;;;;;;5072039;28;20442;-73
2022/06/14 13:43:30;;;;;;;0.70;0.10;;;25.70;99.90;;;;;;5072506;28;20488;-75
2022/06/14 13:46:05;;;;;;;0.70;0.20;;;25.60;99.90;;;;;;5071602;28;20533;-72
2022/06/14 13:48:39;;;;;;;0.70;0.20;;;25.60;99.90;;;;;;5071925;28;21029;-71
2022/06/14 13:51:23;;;;;;;0.70;0.20;;;25.70;99.90;;;;;;5071723;28;20446;-71
2022/06/14 13:53:57;;;;;;;0.70;0.20;;;25.80;99.90;;;;;;5063954;28;20457;-71
2022/06/14 13:56:32;;;;;;;0.70;0.10;;;25.80;99.90;;;;;;5058865;28;20457;-71
2022/06/14 13:59:07;;;;;;;0.70;0.10;;;25.80;99.90;;;;;;5071545;28;20467;-72